Weerstation Zoersel Live Webcam Weerstation Zoersel Live Webcam


sateliet wolkenradar  


Doneren

CBI


onweer radar meer informatie blitzortung!


regen radar  rain snow radar


Enkele sfeerfotootjes...  

Het weer levert geen direct gevaar op.    Er zijn geen waarschuwingen afgegeven.

metar rapporten vliegvelden

   
EBAW - Antwerp
gewijzigd: 25-04-2019 11:50
licht bewolkt  
licht bewolkt  
   wind: zzo 25,9 km/h
wind: zzo 25,9 km/h
temperatuur: 16°C
dauwpunt: 8°C
vochtigheid: 59%
barometer: 1003 hPa
bewolking: licht bewolkt
zicht: meer dan 10 km
bewolking: licht bewolkt 3500 ft
EBAW 250950Z 16014KT 9999 FEW035 16/08 Q1003 NOSIG
EBLG - Li├Ęge
gewijzigd: 25-04-2019 12:20
gedeeltelijk bewolkt  
gedeeltelijk bewolkt  
   wind: zuiden 27,8 km/h
wind: zuiden 27,8 km/h
temperatuur: 16°C
dauwpunt: 7°C
vochtigheid: 55%
barometer: 1005 hPa
bewolking: gedeeltelijk bewolkt
zicht: meer dan 10 km
bewolking: gedeeltelijk bewolkt 3800 ft
EBLG 251020Z 18015KT 150V210 9999 SCT038 16/07 Q1005 NOSIG
EBCV - Mons/Bergen
gewijzigd: 25-04-2019 11:55
licht bewolkt  
licht bewolkt  
   wind: zuiden 29,6 km/h
wind: zuiden 29,6 km/h
temperatuur: 14°C
dauwpunt: 8°C
vochtigheid: 67%
barometer: 1003 hPa
bewolking: licht bewolkt
zicht: meer dan 10 km
bewolking: licht bewolkt 3100 ft
EBCV 250955Z AUTO 17016KT 9999 FEW031/// 14/08 Q1003 BLU
EHBK - Maastricht
gewijzigd: 25-04-2019 11:55
gedeeltelijk bewolkt  
gedeeltelijk bewolkt  
   wind: zuiden 24,1 km/h
wind: zuiden 24,1 km/h
temperatuur: 16°C
dauwpunt: 8°C
vochtigheid: 59%
barometer: 1005 hPa
bewolking: gedeeltelijk bewolkt
zicht: meer dan 10 km
bewolking: gedeeltelijk bewolkt
EHBK 250955Z AUTO 18013KT 140V210 9999 NSC 16/08 Q1005 NOSIG
ELLX - Luxemburg
gewijzigd: 25-04-2019 12:20
helder  
helder  
   wind: zzo 20,4 km/h
wind: zzo 20,4 km/h
temperatuur: 13°C
dauwpunt: 7°C
vochtigheid: 67%
barometer: 1007 hPa
zicht: meer dan 10 km
bewolking: helder
ELLX 251020Z 16011KT 130V210 CAVOK 13/07 Q1007 NOSIG
EBOS - Oostende
gewijzigd: 25-04-2019 12:20
gedeeltelijk bewolkt  
gedeeltelijk bewolkt  
   wind: zuiden 25,9 km/h
wind: zuiden 25,9 km/h
temperatuur: 14°C
dauwpunt: 9°C
vochtigheid: 72%
barometer: 1001 hPa
bewolking: gedeeltelijk bewolkt
zicht: meer dan 10 km
bewolking: licht bewolkt 1800 ft,
gedeeltelijk bewolkt 2800 ft
EBOS 251020Z 17014KT 9999 FEW018 SCT028 14/09 Q1001 NOSIG

script ontwikkeld door  Saratoga-weather.org aangepast voor de template door  Weerstation Leuven